Skip Navigation Links Skip Navigation Links

Current Weather

Saglek Bay, Nfld.

For information only: do not use for flight planning or navigation.
Latest weather
Observation time Thursday, October 17, 2019 2:30 AM NDT
Local time Thursday, October 17, 2019 3:25 AM NDT
Flight conditions Low Instrument Meteorological Conditions
Winds
Wind direction West-Northwest (290°)
Wind speed 25 mph
Visibility 0 mi.
Present weather SM
Sky condition
Ceiling unlimited
Temperature 34°F
Dewpoint 25°F
Altimeter 29.57 in.Hg
Derived measurements
Relative humidity 69%
Wind chill 21°F
Density altitude -745 ft.
Remarks
Fully automated report.
METAR CWZZ 170500Z AUTO 29022KT ////SM NCD 01/M04 A2957

Settings

Location code

InnerDrive.Weather 4.0.6770.0 Release CLR 4.0.30319.42000
Copyright ©2018 Inner Drive Technology. All rights reserved. Portions Copyright ©1986-2018 David Braverman.

Find weather

Site navigation


Skip Navigation Links

Place info

Page info

PayPal - The safer, easier way to pay online!

Return home.

Copyright ©2019 Inner Drive Technology. Purveyors of fine, hand-crafted computer software. Page printed 2019-10-17T05:55:50 UTC.